createdAt,value
2023-10-22T09:30:31.965Z,292.50
2023-10-22T09:31:30.303Z,315.00
2023-10-22T09:32:31.041Z,331.88
2023-10-22T09:33:30.263Z,320.62
2023-10-22T09:34:30.206Z,331.88
2023-10-22T09:35:30.174Z,354.38
2023-10-22T09:36:30.433Z,320.62
2023-10-22T09:37:30.172Z,309.38
2023-10-22T09:38:30.132Z,326.25
2023-10-22T09:39:30.933Z,309.38
2023-10-22T09:40:30.116Z,298.12
2023-10-22T09:41:30.289Z,258.75
2023-10-22T09:42:30.146Z,253.12
2023-10-22T09:43:30.098Z,168.75
2023-10-22T09:44:30.083Z,135.00
2023-10-22T09:45:30.128Z,151.88
2023-10-22T09:46:30.053Z,106.88
2023-10-22T09:47:30.074Z,90.00
2023-10-22T09:48:30.085Z,78.75
2023-10-22T09:49:30.013Z,84.38
2023-10-22T09:50:29.972Z,101.25
2023-10-22T09:51:30.015Z,112.50
2023-10-22T09:52:29.959Z,140.62
2023-10-22T09:53:29.968Z,157.50
2023-10-22T09:54:29.999Z,174.38
2023-10-22T09:55:29.915Z,157.50
2023-10-22T09:56:30.851Z,146.25
2023-10-22T09:57:29.990Z,140.62
2023-10-22T09:58:29.881Z,146.25
2023-10-22T09:59:29.881Z,140.62
2023-10-22T10:00:39.647Z,135.00
2023-10-22T10:01:30.935Z,129.38
2023-10-22T10:02:29.913Z,135.00
2023-10-22T10:03:29.913Z,146.25
2023-10-22T10:04:29.861Z,151.88
2023-10-22T10:05:29.790Z,157.50
2023-10-22T10:06:29.864Z,146.25
2023-10-22T10:07:29.803Z,129.38
2023-10-22T10:08:29.739Z,106.88
2023-10-22T10:09:29.776Z,135.00
2023-10-22T10:10:29.712Z,129.38
2023-10-22T10:11:29.701Z,106.88
2023-10-22T10:12:29.842Z,101.25
2023-10-22T10:13:29.680Z,101.25
2023-10-22T10:14:29.682Z,95.62
2023-10-22T10:15:29.748Z,84.38
2023-10-22T10:16:29.707Z,78.75
2023-10-22T10:17:29.677Z,90.00
2023-10-22T10:18:29.725Z,112.50
2023-10-22T10:19:30.584Z,135.00
2023-10-22T10:20:29.609Z,129.38
2023-10-22T10:21:29.603Z,129.38
2023-10-22T10:22:29.563Z,129.38
2023-10-22T10:23:29.546Z,146.25
2023-10-22T10:24:29.623Z,151.88
2023-10-22T10:25:29.520Z,157.50
2023-10-22T10:26:29.528Z,146.25
2023-10-22T10:27:29.591Z,135.00
2023-10-22T10:28:29.469Z,129.38
2023-10-22T10:29:29.602Z,129.38
2023-10-22T10:30:29.525Z,140.62
2023-10-22T10:31:30.500Z,151.88
2023-10-22T10:32:29.467Z,180.00
2023-10-22T10:33:29.564Z,163.12
2023-10-22T10:34:29.383Z,168.75
2023-10-22T10:35:29.409Z,185.62
2023-10-22T10:36:29.454Z,213.75
2023-10-22T10:37:29.388Z,247.50
2023-10-22T10:38:29.342Z,253.12
2023-10-22T10:39:29.381Z,258.75
2023-10-22T10:40:29.342Z,247.50
2023-10-22T10:41:29.324Z,236.25
2023-10-22T10:42:29.375Z,331.88
2023-10-22T10:43:29.268Z,635.62
2023-10-22T10:44:29.250Z,871.88
2023-10-22T10:45:29.273Z,517.50
2023-10-22T10:46:29.489Z,646.88
2023-10-22T10:47:29.371Z,157.50
2023-10-22T10:48:29.301Z,866.25
2023-10-22T10:49:29.214Z,765.00
2023-10-22T10:50:29.174Z,444.38
2023-10-22T10:51:29.242Z,230.62
2023-10-22T10:52:29.168Z,163.12
2023-10-22T10:53:39.392Z,163.12
2023-10-22T10:54:31.154Z,157.50
2023-10-22T10:55:29.104Z,157.50
2023-10-22T10:56:29.114Z,157.50
2023-10-22T10:57:29.130Z,157.50
2023-10-22T10:58:29.065Z,157.50
2023-10-22T10:59:29.056Z,151.88
2023-10-22T11:00:29.077Z,151.88
2023-10-22T11:01:29.072Z,151.88
2023-10-22T11:02:29.066Z,151.88
2023-10-22T11:03:29.010Z,151.88
2023-10-22T11:04:29.089Z,151.88
2023-10-22T11:05:29.006Z,151.88
2023-10-22T11:06:29.083Z,157.50
2023-10-22T11:07:28.959Z,157.50
2023-10-22T11:08:31.664Z,157.50
2023-10-22T11:09:28.977Z,163.12
2023-10-22T11:10:28.928Z,163.12
2023-10-22T11:11:28.931Z,174.38
2023-10-22T11:12:28.953Z,180.00
2023-10-22T11:13:28.910Z,196.88
2023-10-22T11:14:28.872Z,219.38
2023-10-22T11:15:28.874Z,191.25
2023-10-22T11:16:28.899Z,185.62
2023-10-22T11:17:28.900Z,196.88
2023-10-22T11:18:28.918Z,208.12
2023-10-22T11:19:28.820Z,225.00
2023-10-22T11:20:29.778Z,208.12
2023-10-22T11:21:28.808Z,202.50
2023-10-22T11:22:28.799Z,225.00
2023-10-22T11:23:28.794Z,247.50
2023-10-22T11:24:28.799Z,275.62
2023-10-22T11:25:28.725Z,331.88
2023-10-22T11:26:28.711Z,343.12
2023-10-22T11:27:28.710Z,337.50
2023-10-22T11:28:28.715Z,326.25
2023-10-22T11:29:28.697Z,320.62
2023-10-22T11:30:28.742Z,303.75
2023-10-22T11:31:28.648Z,309.38
2023-10-22T11:32:28.656Z,286.88
2023-10-22T11:33:28.722Z,292.50
2023-10-22T11:34:28.634Z,286.88
2023-10-22T11:35:28.592Z,292.50
2023-10-22T11:36:28.658Z,315.00
2023-10-22T11:37:28.609Z,343.12
2023-10-22T11:38:28.582Z,337.50
2023-10-22T11:39:40.657Z,303.75
2023-10-22T11:40:29.522Z,281.25
2023-10-22T11:41:29.386Z,230.62
2023-10-22T11:42:28.557Z,208.12
2023-10-22T11:43:28.500Z,185.62
2023-10-22T11:44:28.493Z,208.12
2023-10-22T11:45:28.484Z,225.00
2023-10-22T11:46:28.490Z,270.00
2023-10-22T11:47:32.918Z,315.00
2023-10-22T11:48:28.685Z,331.88
2023-10-22T11:49:28.392Z,331.88
2023-10-22T11:50:28.385Z,354.38
2023-10-22T11:51:28.416Z,326.25
2023-10-22T11:52:28.358Z,281.25
2023-10-22T11:53:28.337Z,241.88
2023-10-22T11:54:28.425Z,225.00
2023-10-22T11:55:36.949Z,191.25
2023-10-22T11:56:29.295Z,151.88
2023-10-22T11:57:28.317Z,118.12
2023-10-22T11:58:28.299Z,101.25
2023-10-22T11:59:28.294Z,95.62
2023-10-22T12:00:28.412Z,78.75
2023-10-22T12:01:28.329Z,73.12
2023-10-22T12:02:28.286Z,67.50
2023-10-22T12:03:28.365Z,50.62
2023-10-22T12:04:28.213Z,45.00
2023-10-22T12:05:28.198Z,45.00
2023-10-22T12:06:28.261Z,45.00
2023-10-22T12:07:28.154Z,45.00
2023-10-22T12:08:28.140Z,45.00
2023-10-22T12:09:28.257Z,50.62
2023-10-22T12:10:29.946Z,56.25
2023-10-22T12:11:28.108Z,61.88
2023-10-22T12:12:28.817Z,84.38
2023-10-22T12:13:28.964Z,95.62
2023-10-22T12:14:29.041Z,112.50
2023-10-22T12:15:28.113Z,123.75
2023-10-22T12:16:28.103Z,135.00
2023-10-22T12:17:28.097Z,146.25
2023-10-22T12:18:28.137Z,157.50
2023-10-22T12:19:27.989Z,163.12
2023-10-22T12:20:28.028Z,168.75
2023-10-22T12:21:28.048Z,180.00
2023-10-22T12:22:27.969Z,180.00
2023-10-22T12:23:38.171Z,185.62
2023-10-22T12:24:29.047Z,196.88
2023-10-22T12:25:28.639Z,202.50
2023-10-22T12:26:27.905Z,202.50
2023-10-22T12:27:27.998Z,202.50
2023-10-22T12:28:27.925Z,191.25
2023-10-22T12:29:27.898Z,185.62
2023-10-22T12:30:28.350Z,180.00
2023-10-22T12:31:27.880Z,180.00
2023-10-22T12:32:27.854Z,185.62
2023-10-22T12:33:27.921Z,185.62
2023-10-22T12:34:27.822Z,191.25
2023-10-22T12:35:27.870Z,208.12
2023-10-22T12:36:27.987Z,219.38
2023-10-22T12:37:27.752Z,236.25
2023-10-22T12:38:28.727Z,270.00
2023-10-22T12:39:27.816Z,315.00
2023-10-22T12:40:27.757Z,365.62
2023-10-22T12:41:28.664Z,416.25
2023-10-22T12:42:27.837Z,421.88
2023-10-22T12:43:27.673Z,416.25
2023-10-22T12:44:27.682Z,399.38
2023-10-22T12:45:27.708Z,376.88
2023-10-22T12:46:27.724Z,337.50
2023-10-22T12:47:27.653Z,348.75
2023-10-22T12:48:27.707Z,360.00
2023-10-22T12:49:27.622Z,393.75
2023-10-22T12:50:27.628Z,438.75
2023-10-22T12:51:27.705Z,461.25
2023-10-22T12:52:27.590Z,461.25
2023-10-22T12:53:27.576Z,472.50
2023-10-22T12:54:27.620Z,489.38
2023-10-22T12:55:27.546Z,489.38
2023-10-22T12:56:27.510Z,478.12
2023-10-22T12:57:27.587Z,466.88
2023-10-22T12:58:27.474Z,466.88
2023-10-22T12:59:28.429Z,472.50
2023-10-22T13:00:27.575Z,466.88
2023-10-22T13:01:27.503Z,450.00
2023-10-22T13:02:27.456Z,433.12
2023-10-22T13:03:27.583Z,416.25
2023-10-22T13:04:27.528Z,393.75
2023-10-22T13:05:27.404Z,365.62
2023-10-22T13:06:27.494Z,326.25
2023-10-22T13:07:27.347Z,281.25
2023-10-22T13:08:27.327Z,241.88
2023-10-22T13:09:27.391Z,202.50
2023-10-22T13:10:27.328Z,196.88
2023-10-22T13:11:27.309Z,208.12
2023-10-22T13:12:27.345Z,225.00
2023-10-22T13:13:28.015Z,225.00
2023-10-22T13:14:27.260Z,225.00
2023-10-22T13:15:27.328Z,185.62
2023-10-22T13:16:27.399Z,168.75
2023-10-22T13:17:27.298Z,168.75
2023-10-22T13:18:27.350Z,180.00
2023-10-22T13:19:28.133Z,196.88
2023-10-22T13:20:28.139Z,225.00
2023-10-22T13:21:28.160Z,241.88
2023-10-22T13:22:27.150Z,275.62
2023-10-22T13:23:27.140Z,320.62
2023-10-22T13:24:27.159Z,399.38
2023-10-22T13:25:27.115Z,478.12
2023-10-22T13:26:27.098Z,450.00
2023-10-22T13:27:27.134Z,399.38
2023-10-22T13:28:27.046Z,410.62
2023-10-22T13:29:27.036Z,500.62
2023-10-22T13:30:27.133Z,421.88
2023-10-22T13:31:27.109Z,405.00
2023-10-22T13:32:27.015Z,444.38
2023-10-22T13:33:28.061Z,421.88
2023-10-22T13:34:27.032Z,478.12
2023-10-22T13:35:27.044Z,438.75
2023-10-22T13:36:26.996Z,472.50
2023-10-22T13:37:26.952Z,489.38
2023-10-22T13:38:26.919Z,444.38
2023-10-22T13:39:26.944Z,376.88
2023-10-22T13:40:26.933Z,343.12
2023-10-22T13:41:26.888Z,343.12
2023-10-22T13:42:26.963Z,399.38
2023-10-22T13:43:26.851Z,388.12
2023-10-22T13:44:26.861Z,421.88
2023-10-22T13:45:26.916Z,421.88
2023-10-22T13:46:27.818Z,405.00
2023-10-22T13:47:26.824Z,393.75
2023-10-22T13:48:26.906Z,472.50
2023-10-22T13:49:26.785Z,1406.25
2023-10-22T13:51:15.117Z,1738.12
2023-10-22T13:51:30.704Z,1760.62
2023-10-22T13:52:26.761Z,382.50
2023-10-22T13:53:26.763Z,652.50
2023-10-22T13:54:26.752Z,506.25
2023-10-22T13:55:26.785Z,483.75
2023-10-22T13:56:26.689Z,444.38
2023-10-22T13:57:26.696Z,511.88
2023-10-22T13:58:26.648Z,500.62
2023-10-22T13:59:26.667Z,545.62
2023-10-22T14:00:26.910Z,523.12
2023-10-22T14:01:26.634Z,894.38
2023-10-22T14:02:26.624Z,1085.62
2023-10-22T14:03:27.491Z,1383.75
2023-10-22T14:04:26.825Z,1288.12
2023-10-22T14:05:26.581Z,731.25
2023-10-22T14:06:26.634Z,478.12
2023-10-22T14:07:26.533Z,331.88
2023-10-22T14:08:26.524Z,360.00
2023-10-22T14:09:26.552Z,967.50
2023-10-22T14:10:26.490Z,1631.25
2023-10-22T14:11:26.491Z,1220.62
2023-10-22T14:12:26.583Z,455.62
2023-10-22T14:13:26.488Z,382.50
2023-10-22T14:14:27.135Z,770.62
2023-10-22T14:15:28.918Z,939.38
2023-10-22T14:16:26.523Z,950.62
2023-10-22T14:17:26.423Z,843.75
2023-10-22T14:18:26.498Z,781.88
2023-10-22T14:20:38.384Z,2266.88
2023-10-22T14:21:46.768Z,1620.00
2023-10-22T14:22:37.902Z,376.88
2023-10-22T14:23:37.913Z,1237.50
2023-10-22T14:24:38.126Z,1485.00
2023-10-22T14:25:37.865Z,675.00
2023-10-22T14:26:37.851Z,1265.62
2023-10-22T14:29:15.104Z,1698.75
2023-10-22T14:29:19.776Z,1597.50
2023-10-22T14:30:19.830Z,1434.38
2023-10-22T14:31:19.771Z,393.75
2023-10-22T14:32:19.747Z,320.62
2023-10-22T14:33:19.754Z,286.88
2023-10-22T14:34:25.158Z,348.75
2023-10-22T14:35:20.703Z,455.62
2023-10-22T14:36:19.713Z,517.50
2023-10-22T14:37:31.420Z,1614.38
2023-10-22T14:38:19.641Z,1665.00
2023-10-22T14:39:29.254Z,1597.50
2023-10-22T14:40:19.624Z,376.88
2023-10-22T14:41:19.600Z,343.12
2023-10-22T14:42:19.653Z,511.88
2023-10-22T14:43:19.600Z,832.50
2023-10-22T14:44:19.597Z,483.75
2023-10-22T14:45:19.634Z,343.12
2023-10-22T14:46:19.586Z,309.38
2023-10-22T14:47:19.558Z,1096.88
2023-10-22T14:48:19.593Z,455.62
2023-10-22T14:49:19.534Z,1186.88
2023-10-22T14:51:54.514Z,1468.12
2023-10-22T14:52:01.540Z,1215.00
2023-10-22T14:52:59.192Z,331.88
2023-10-22T14:53:59.188Z,275.62
2023-10-22T14:54:59.141Z,196.88
2023-10-22T14:55:59.138Z,163.12
2023-10-22T14:56:59.539Z,241.88
2023-10-22T14:57:59.088Z,140.62
2023-10-22T14:58:59.077Z,135.00
2023-10-22T14:59:59.190Z,135.00
2023-10-22T15:00:59.109Z,157.50
2023-10-22T15:01:59.073Z,1220.62
2023-10-22T15:03:29.745Z,1372.50
2023-10-22T15:03:59.282Z,995.62
2023-10-22T15:05:01.769Z,213.75
2023-10-22T15:05:59.081Z,298.12
2023-10-22T15:06:58.979Z,292.50
2023-10-22T15:07:58.991Z,225.00
2023-10-22T15:08:59.084Z,202.50
2023-10-22T15:09:58.962Z,163.12
2023-10-22T15:10:58.949Z,140.62
2023-10-22T15:11:58.967Z,129.38
2023-10-22T15:12:58.932Z,118.12
2023-10-22T15:13:58.884Z,112.50
2023-10-22T15:14:58.986Z,106.88
2023-10-22T15:15:58.965Z,112.50
2023-10-22T15:16:58.845Z,112.50
2023-10-22T15:17:58.912Z,118.12
2023-10-22T15:18:58.836Z,129.38
2023-10-22T15:19:58.816Z,146.25
2023-10-22T15:20:58.822Z,157.50
2023-10-22T15:21:59.503Z,151.88
2023-10-22T15:22:58.796Z,140.62
2023-10-22T15:23:58.798Z,118.12
2023-10-22T15:24:58.753Z,112.50
2023-10-22T15:25:58.715Z,101.25
2023-10-22T15:26:59.538Z,95.62
2023-10-22T15:27:58.747Z,90.00
2023-10-22T15:28:58.694Z,90.00
2023-10-22T15:29:58.718Z,90.00
2023-10-22T15:30:58.652Z,90.00
2023-10-22T15:31:58.703Z,73.12
2023-10-22T15:32:58.681Z,56.25
2023-10-22T15:33:58.633Z,50.62
2023-10-22T15:34:58.591Z,50.62
2023-10-22T15:35:58.688Z,39.38
2023-10-22T15:36:58.598Z,39.38
2023-10-22T15:37:58.568Z,39.38
2023-10-22T15:38:58.635Z,45.00
2023-10-22T15:39:58.588Z,50.62
2023-10-22T15:40:58.541Z,56.25
2023-10-22T15:41:58.579Z,61.88
2023-10-22T15:42:58.486Z,73.12
2023-10-22T15:44:01.201Z,84.38
2023-10-22T15:44:58.570Z,84.38
2023-10-22T15:45:58.433Z,73.12
2023-10-22T15:46:59.135Z,50.62
2023-10-22T15:47:58.567Z,39.38
2023-10-22T15:48:58.500Z,33.75
2023-10-22T15:49:58.459Z,28.12
2023-10-22T15:50:58.416Z,22.50
2023-10-22T15:51:58.377Z,22.50
2023-10-22T15:52:58.376Z,22.50
2023-10-22T15:53:58.514Z,28.12
2023-10-22T15:54:58.383Z,28.12
2023-10-22T15:55:58.311Z,28.12
2023-10-22T15:56:58.479Z,28.12
2023-10-22T15:57:58.356Z,28.12
2023-10-22T15:58:58.300Z,22.50
2023-10-22T15:59:58.307Z,22.50
2023-10-22T16:00:58.298Z,16.88
2023-10-22T16:01:58.263Z,16.88
2023-10-22T16:02:58.316Z,11.25
2023-10-22T16:03:58.613Z,11.25
2023-10-22T16:04:58.242Z,11.25
2023-10-22T16:05:58.173Z,11.25
2023-10-22T16:06:58.187Z,5.62
2023-10-22T16:07:58.177Z,5.62
2023-10-22T16:08:58.180Z,5.62
2023-10-22T16:09:58.129Z,5.62
2023-10-22T16:10:58.113Z,5.62
2023-10-22T16:11:58.089Z,5.62
2023-10-22T16:12:58.081Z,0.00
2023-10-22T16:13:58.098Z,0.00
2023-10-22T16:14:58.128Z,0.00
2023-10-22T16:15:58.153Z,0.00
2023-10-22T16:16:58.057Z,0.00
2023-10-22T16:17:58.096Z,0.00
2023-10-22T16:18:58.073Z,0.00
2023-10-22T16:19:58.012Z,0.00
2023-10-22T16:20:58.034Z,0.00
2023-10-22T16:21:57.982Z,0.00
2023-10-22T16:22:57.976Z,0.00
2023-10-22T16:23:57.930Z,0.00
2023-10-22T16:24:57.948Z,0.00
2023-10-22T16:25:57.897Z,0.00
2023-10-22T16:26:57.920Z,0.00
2023-10-22T16:27:57.900Z,0.00
2023-10-22T16:28:59.012Z,0.00
2023-10-22T16:29:57.868Z,0.00
2023-10-22T16:30:57.864Z,0.00
2023-10-22T16:31:57.825Z,0.00
2023-10-22T16:32:58.186Z,0.00
2023-10-22T16:33:57.883Z,0.00
2023-10-22T16:34:57.803Z,0.00
2023-10-22T16:35:57.764Z,0.00
2023-10-22T16:36:58.713Z,0.00
2023-10-22T16:37:57.739Z,0.00
2023-10-22T16:38:57.755Z,0.00
2023-10-22T16:39:57.736Z,0.00
2023-10-22T16:40:57.704Z,0.00
2023-10-22T16:41:57.680Z,0.00
2023-10-22T16:42:57.682Z,0.00
2023-10-22T16:43:57.656Z,0.00
2023-10-22T16:44:57.715Z,0.00
2023-10-22T16:45:57.704Z,0.00
2023-10-22T16:46:57.644Z,0.00
2023-10-22T16:47:57.658Z,0.00
2023-10-22T16:48:58.338Z,0.00
2023-10-22T16:49:57.605Z,0.00
2023-10-22T16:50:57.652Z,0.00
2023-10-22T16:51:57.575Z,0.00
2023-10-22T16:52:57.566Z,0.00
2023-10-22T16:53:57.520Z,0.00
2023-10-22T16:54:58.217Z,0.00
2023-10-22T16:55:57.490Z,0.00
2023-10-22T16:56:57.544Z,0.00
2023-10-22T16:57:57.494Z,0.00
2023-10-22T16:58:57.457Z,0.00
2023-10-22T16:59:57.467Z,0.00
2023-10-22T17:00:57.451Z,0.00
2023-10-22T17:01:57.480Z,0.00
2023-10-22T17:02:58.500Z,0.00
2023-10-22T17:03:57.562Z,0.00
2023-10-22T17:04:57.406Z,0.00
2023-10-22T17:05:57.358Z,0.00
2023-10-22T17:06:58.308Z,0.00
2023-10-22T17:07:57.339Z,0.00
2023-10-22T17:08:57.359Z,0.00
2023-10-22T17:09:57.335Z,0.00
2023-10-22T17:10:57.299Z,0.00
2023-10-22T17:11:57.313Z,0.00
2023-10-22T17:12:57.283Z,0.00
2023-10-22T17:13:57.296Z,0.00
2023-10-22T17:14:57.372Z,0.00
2023-10-22T17:15:57.322Z,0.00
2023-10-22T17:16:58.257Z,0.00
2023-10-22T17:17:57.282Z,0.00
2023-10-22T17:18:57.500Z,0.00
2023-10-22T17:19:57.286Z,0.00
2023-10-22T17:20:57.205Z,0.00
2023-10-22T17:21:57.153Z,0.00
2023-10-22T17:22:57.171Z,0.00
2023-10-22T17:23:57.125Z,0.00
2023-10-22T17:24:57.157Z,0.00
2023-10-22T17:25:57.099Z,0.00
2023-10-22T17:26:57.151Z,0.00
2023-10-22T17:27:57.100Z,0.00
2023-10-22T17:28:57.063Z,0.00
2023-10-22T17:29:57.089Z,0.00
2023-10-22T17:30:57.076Z,0.00
2023-10-22T17:31:57.024Z,0.00
2023-10-22T17:32:57.085Z,0.00
2023-10-22T17:34:05.764Z,0.00
2023-10-22T17:34:58.015Z,0.00
2023-10-22T17:35:56.971Z,0.00
2023-10-22T17:36:56.983Z,0.00
2023-10-22T17:37:56.982Z,0.00
2023-10-22T17:38:56.959Z,0.00
2023-10-22T17:39:56.932Z,0.00
2023-10-22T17:40:56.899Z,0.00
2023-10-22T17:41:56.884Z,0.00
2023-10-22T17:42:56.876Z,0.00
2023-10-22T17:43:56.862Z,0.00
2023-10-22T17:44:56.889Z,0.00
2023-10-22T17:45:56.848Z,0.00
2023-10-22T17:46:56.957Z,0.00
2023-10-22T17:47:56.853Z,0.00
2023-10-22T17:48:56.838Z,0.00
2023-10-22T17:49:56.808Z,0.00
2023-10-22T17:50:56.828Z,0.00
2023-10-22T17:51:56.754Z,0.00
2023-10-22T17:52:56.741Z,0.00
2023-10-22T17:53:56.764Z,0.00
2023-10-22T17:54:56.744Z,0.00
2023-10-22T17:56:08.455Z,0.00
2023-10-22T17:56:57.783Z,0.00
2023-10-22T17:57:56.728Z,0.00
2023-10-22T17:58:56.687Z,0.00
2023-10-22T17:59:56.670Z,0.00
2023-10-22T18:00:56.757Z,0.00
2023-10-22T18:01:56.633Z,0.00
2023-10-22T18:02:56.757Z,0.00
2023-10-22T18:03:56.639Z,0.00
2023-10-22T18:04:56.589Z,0.00
2023-10-22T18:05:56.567Z,0.00
2023-10-22T18:06:56.594Z,0.00
2023-10-22T18:07:56.587Z,0.00
2023-10-22T18:08:56.605Z,0.00
2023-10-22T18:09:56.562Z,0.00
2023-10-22T18:10:56.526Z,0.00
2023-10-22T18:11:56.497Z,0.00
2023-10-22T18:12:56.507Z,0.00
2023-10-22T18:13:56.485Z,0.00
2023-10-22T18:14:56.518Z,0.00
2023-10-22T18:15:56.468Z,0.00
2023-10-22T18:16:56.474Z,0.00
2023-10-22T18:17:56.421Z,0.00
2023-10-22T18:18:58.272Z,0.00
2023-10-22T18:20:01.683Z,0.00
2023-10-22T18:20:57.408Z,0.00
2023-10-22T18:21:56.349Z,0.00
2023-10-22T18:22:56.348Z,0.00
2023-10-22T18:23:56.348Z,0.00
2023-10-22T18:24:56.341Z,0.00
2023-10-22T18:25:56.317Z,0.00
2023-10-22T18:26:56.320Z,0.00
2023-10-22T18:27:56.271Z,0.00
2023-10-22T18:28:56.289Z,0.00
2023-10-22T18:29:56.300Z,0.00
2023-10-22T18:30:56.334Z,0.00
2023-10-22T18:31:57.627Z,0.00
2023-10-22T18:32:56.314Z,0.00
2023-10-22T18:33:56.263Z,0.00
2023-10-22T18:35:00.067Z,0.00
2023-10-22T18:35:56.211Z,0.00
2023-10-22T18:36:56.186Z,0.00
2023-10-22T18:37:56.219Z,0.00
2023-10-22T18:38:56.207Z,0.00
2023-10-22T18:39:56.144Z,0.00
2023-10-22T18:40:56.119Z,0.00
2023-10-22T18:42:07.954Z,0.00
2023-10-22T18:42:57.122Z,0.00
2023-10-22T18:43:56.063Z,0.00
2023-10-22T18:44:56.124Z,0.00
2023-10-22T18:45:56.036Z,0.00
2023-10-22T18:46:56.058Z,0.00
2023-10-22T18:47:56.083Z,0.00
2023-10-22T18:48:56.074Z,0.00
2023-10-22T18:49:56.018Z,0.00
2023-10-22T18:50:56.012Z,0.00
2023-10-22T18:51:56.037Z,0.00
2023-10-22T18:52:55.978Z,0.00
2023-10-22T18:53:55.931Z,0.00
2023-10-22T18:54:55.953Z,0.00
2023-10-22T18:55:55.904Z,0.00
2023-10-22T18:56:55.947Z,0.00
2023-10-22T18:57:55.903Z,0.00
2023-10-22T18:58:55.895Z,0.00
2023-10-22T18:59:55.883Z,0.00
2023-10-22T19:00:55.906Z,0.00
2023-10-22T19:01:55.849Z,0.00
2023-10-22T19:02:55.980Z,0.00
2023-10-22T19:03:55.999Z,0.00
2023-10-22T19:04:55.793Z,0.00
2023-10-22T19:05:55.776Z,0.00
2023-10-22T19:06:55.790Z,0.00
2023-10-22T19:07:55.771Z,0.00
2023-10-22T19:08:55.798Z,0.00
2023-10-22T19:09:55.742Z,0.00
2023-10-22T19:10:55.704Z,0.00
2023-10-22T19:11:55.719Z,0.00
2023-10-22T19:12:55.703Z,0.00
2023-10-22T19:13:55.657Z,0.00
2023-10-22T19:14:55.694Z,0.00
2023-10-22T19:15:55.654Z,0.00
2023-10-22T19:16:55.647Z,0.00
2023-10-22T19:17:55.678Z,0.00
2023-10-22T19:18:55.690Z,0.00
2023-10-22T19:19:55.615Z,0.00
2023-10-22T19:20:55.629Z,0.00
2023-10-22T19:21:55.553Z,0.00
2023-10-22T19:22:55.569Z,0.00
2023-10-22T19:23:55.536Z,0.00
2023-10-22T19:24:55.596Z,0.00
2023-10-22T19:25:55.538Z,0.00
2023-10-22T19:26:55.529Z,0.00
2023-10-22T19:27:55.505Z,0.00
2023-10-22T19:28:55.513Z,0.00
2023-10-22T19:29:55.473Z,0.00
2023-10-22T19:30:55.770Z,0.00
2023-10-22T19:31:55.424Z,0.00
2023-10-22T19:32:55.558Z,0.00
2023-10-22T19:33:55.539Z,0.00
2023-10-22T19:34:55.412Z,0.00
2023-10-22T19:35:55.366Z,0.00
2023-10-22T19:36:55.384Z,0.00
2023-10-22T19:37:55.369Z,0.00
2023-10-22T19:38:55.364Z,0.00
2023-10-22T19:39:55.338Z,0.00
2023-10-22T19:40:55.314Z,0.00
2023-10-22T19:41:55.311Z,0.00
2023-10-22T19:42:55.302Z,0.00
2023-10-22T19:43:55.286Z,0.00
2023-10-22T19:44:55.307Z,0.00
2023-10-22T19:45:55.299Z,0.00
2023-10-22T19:46:55.248Z,0.00
2023-10-22T19:47:55.235Z,0.00
2023-10-22T19:48:55.195Z,0.00
2023-10-22T19:49:55.182Z,0.00
2023-10-22T19:50:55.195Z,0.00
2023-10-22T19:51:55.176Z,0.00
2023-10-22T19:52:55.170Z,0.00
2023-10-22T19:53:55.132Z,0.00
2023-10-22T19:54:55.141Z,0.00
2023-10-22T19:55:55.130Z,0.00
2023-10-22T19:56:55.152Z,0.00
2023-10-22T19:57:55.114Z,0.00
2023-10-22T19:58:55.095Z,0.00
2023-10-22T19:59:55.074Z,0.00
2023-10-22T20:00:55.040Z,0.00
2023-10-22T20:02:06.737Z,0.00
2023-10-22T20:02:56.376Z,0.00
2023-10-22T20:03:55.472Z,0.00
2023-10-22T20:04:55.155Z,0.00
2023-10-22T20:05:54.992Z,0.00
2023-10-22T20:06:54.953Z,0.00
2023-10-22T20:07:54.965Z,0.00
2023-10-22T20:08:54.990Z,0.00
2023-10-22T20:09:54.987Z,0.00
2023-10-22T20:10:54.903Z,0.00
2023-10-22T20:11:54.913Z,0.00
2023-10-22T20:12:54.874Z,0.00
2023-10-22T20:13:54.895Z,0.00
2023-10-22T20:14:54.904Z,0.00
2023-10-22T20:15:54.948Z,0.00
2023-10-22T20:16:54.825Z,0.00
2023-10-22T20:17:54.823Z,0.00
2023-10-22T20:18:54.802Z,0.00
2023-10-22T20:19:54.791Z,0.00
2023-10-22T20:20:54.808Z,0.00
2023-10-22T20:21:54.827Z,0.00
2023-10-22T20:22:54.750Z,0.00
2023-10-22T20:23:54.768Z,0.00
2023-10-22T20:24:54.785Z,0.00
2023-10-22T20:25:54.729Z,0.00
2023-10-22T20:26:54.768Z,0.00
2023-10-22T20:27:54.706Z,0.00
2023-10-22T20:28:54.668Z,0.00
2023-10-22T20:29:54.674Z,0.00
2023-10-22T20:30:54.632Z,0.00
2023-10-22T20:31:54.689Z,0.00
2023-10-22T20:32:54.740Z,0.00
2023-10-22T20:33:54.669Z,0.00
2023-10-22T20:34:54.584Z,0.00
2023-10-22T20:35:54.596Z,0.00
2023-10-22T20:36:54.586Z,0.00
2023-10-22T20:37:54.577Z,0.00
2023-10-22T20:38:54.589Z,0.00
2023-10-22T20:39:54.606Z,0.00
2023-10-22T20:40:56.556Z,0.00
2023-10-22T20:41:54.519Z,0.00
2023-10-22T20:42:54.487Z,0.00
2023-10-22T20:43:54.466Z,0.00
2023-10-22T20:44:54.506Z,0.00
2023-10-22T20:45:54.655Z,0.00
2023-10-22T20:46:54.429Z,0.00
2023-10-22T20:47:54.494Z,0.00
2023-10-22T20:48:54.462Z,0.00
2023-10-22T20:49:54.391Z,0.00
2023-10-22T20:50:54.432Z,0.00
2023-10-22T20:51:54.383Z,0.00
2023-10-22T20:52:54.374Z,0.00
2023-10-22T20:53:54.353Z,0.00
2023-10-22T20:54:54.573Z,0.00
2023-10-22T20:55:54.307Z,0.00
2023-10-22T20:56:54.352Z,0.00
2023-10-22T20:57:54.309Z,0.00
2023-10-22T20:58:54.301Z,0.00
2023-10-22T20:59:54.292Z,0.00
2023-10-22T21:00:54.240Z,0.00
2023-10-22T21:01:54.374Z,0.00
2023-10-22T21:02:54.316Z,0.00
2023-10-22T21:03:54.370Z,0.00
2023-10-22T21:04:54.241Z,0.00
2023-10-22T21:05:54.197Z,0.00
2023-10-22T21:06:54.164Z,0.00
2023-10-22T21:07:54.180Z,0.00
2023-10-22T21:08:54.254Z,0.00
2023-10-22T21:09:54.121Z,0.00
2023-10-22T21:10:54.140Z,0.00
2023-10-22T21:11:54.090Z,0.00
2023-10-22T21:12:54.113Z,0.00
2023-10-22T21:13:54.102Z,0.00
2023-10-22T21:14:54.111Z,0.00
2023-10-22T21:15:54.084Z,0.00
2023-10-22T21:16:54.068Z,0.00
2023-10-22T21:17:54.042Z,0.00
2023-10-22T21:18:54.030Z,0.00
2023-10-22T21:19:54.014Z,0.00
2023-10-22T21:20:53.999Z,0.00
2023-10-22T21:21:54.051Z,0.00
2023-10-22T21:22:53.958Z,0.00
2023-10-22T21:23:53.933Z,0.00
2023-10-22T21:24:53.995Z,0.00
2023-10-22T21:25:53.934Z,0.00
2023-10-22T21:26:53.959Z,0.00
2023-10-22T21:27:53.905Z,0.00
2023-10-22T21:28:53.869Z,0.00
2023-10-22T21:29:53.851Z,0.00
2023-10-22T21:30:53.870Z,0.00
2023-10-22T21:31:53.857Z,0.00
2023-10-22T21:32:53.884Z,0.00
2023-10-22T21:33:53.884Z,0.00
2023-10-22T21:34:53.815Z,0.00
2023-10-22T21:35:53.801Z,0.00
2023-10-22T21:36:53.840Z,0.00
2023-10-22T21:37:53.796Z,0.00
2023-10-22T21:38:53.797Z,0.00
2023-10-22T21:39:53.768Z,0.00
2023-10-22T21:40:53.709Z,0.00
2023-10-22T21:41:53.720Z,0.00
2023-10-22T21:42:55.839Z,0.00
2023-10-22T21:43:53.688Z,0.00
2023-10-22T21:44:53.723Z,0.00
2023-10-22T21:45:53.738Z,0.00
2023-10-22T21:46:53.672Z,0.00
2023-10-22T21:47:53.652Z,0.00
2023-10-22T21:48:53.726Z,0.00
2023-10-22T21:49:53.612Z,0.00
2023-10-22T21:50:53.611Z,0.00
2023-10-22T21:51:53.632Z,0.00
2023-10-22T21:52:53.589Z,0.00
2023-10-22T21:53:53.529Z,0.00
2023-10-22T21:54:53.589Z,0.00
2023-10-22T21:55:53.536Z,0.00
2023-10-22T21:56:53.548Z,0.00
2023-10-22T21:57:53.508Z,0.00
2023-10-22T21:58:53.473Z,0.00
2023-10-22T21:59:53.454Z,0.00
2023-10-22T22:00:53.489Z,0.00
2023-10-22T22:01:53.458Z,0.00
2023-10-22T22:02:53.559Z,0.00
2023-10-22T22:03:53.449Z,0.00
2023-10-22T22:04:53.392Z,0.00
2023-10-22T22:05:53.399Z,0.00
2023-10-22T22:06:53.386Z,0.00
2023-10-22T22:07:53.383Z,0.00
2023-10-22T22:08:53.371Z,0.00
2023-10-22T22:09:53.318Z,0.00
2023-10-22T22:10:53.308Z,0.00
2023-10-22T22:11:53.319Z,0.00
2023-10-22T22:12:53.280Z,0.00
2023-10-22T22:13:53.277Z,0.00
2023-10-22T22:14:53.314Z,0.00
2023-10-22T22:15:53.374Z,0.00
2023-10-22T22:16:53.261Z,0.00
2023-10-22T22:17:53.254Z,0.00
2023-10-22T22:18:53.198Z,0.00
2023-10-22T22:19:53.248Z,0.00
2023-10-22T22:20:53.195Z,0.00
2023-10-22T22:21:53.150Z,0.00
2023-10-22T22:22:53.174Z,0.00
2023-10-22T22:23:53.153Z,0.00
2023-10-22T22:24:53.130Z,0.00
2023-10-22T22:25:53.122Z,0.00